Time;durP1;ratioP1;P1;durP2;ratioP2;P2;SDS_P1;SDS_P2;PMS_P1;PMS_P2;Temp;Humidity;BMP_temperature;BMP_pressure;BME280_temperature;BME280_humidity;BME280_pressure;Samples;Min_cycle;Max_cycle;Signal;HPM_P1;HPM_P2
2022/01/15 00:00:07;;;;;;;31.10;13.60;;;-0.90;99.90;;;;;;4973290;28;20046;-73
2022/01/15 00:02:33;;;;;;;27.92;13.32;;;-1.00;99.90;;;;;;4973314;28;20058;-73
2022/01/15 00:04:59;;;;;;;35.70;15.68;;;-1.00;99.90;;;;;;4958015;28;20026;-73
2022/01/15 00:07:24;;;;;;;37.28;15.75;;;-1.10;99.90;;;;;;4976161;28;20483;-73
2022/01/15 00:09:51;;;;;;;49.17;19.80;;;-1.00;99.90;;;;;;4979604;28;20030;-73
2022/01/15 00:12:16;;;;;;;44.83;18.70;;;-1.10;99.90;;;;;;4976954;28;20034;-72
2022/01/15 00:14:43;;;;;;;35.25;16.95;;;-1.10;99.90;;;;;;4976413;28;20030;-72
2022/01/15 00:17:20;;;;;;;22.55;11.45;;;-1.20;99.90;;;;;;4976880;28;20058;-72
2022/01/15 00:19:46;;;;;;;21.63;11.25;;;-1.10;99.90;;;;;;4974146;28;20053;-73
2022/01/15 00:22:15;;;;;;;24.88;13.60;;;-1.20;99.90;;;;;;4978230;28;20484;-72
2022/01/15 00:24:42;;;;;;;29.20;15.38;;;-1.20;99.90;;;;;;4986603;28;20451;-73
2022/01/15 00:27:08;;;;;;;30.65;15.85;;;-1.20;99.90;;;;;;4989619;28;20035;-73
2022/01/15 00:29:34;;;;;;;34.28;17.05;;;-1.20;99.90;;;;;;4962989;28;20073;-72
2022/01/15 00:32:05;;;;;;;35.55;15.57;;;-1.30;99.90;;;;;;4976926;28;20098;-72
2022/01/15 00:34:31;;;;;;;34.78;15.63;;;-1.30;99.90;;;;;;4976481;28;20416;-73
2022/01/15 00:36:57;;;;;;;34.28;16.35;;;-1.40;99.90;;;;;;4976404;28;20039;-73
2022/01/15 00:39:24;;;;;;;26.73;12.88;;;-1.40;99.90;;;;;;4976660;28;20496;-73
2022/01/15 00:41:50;;;;;;;30.85;13.95;;;-1.40;99.90;;;;;;4956442;28;20495;-72
2022/01/15 00:44:16;;;;;;;26.20;13.82;;;-1.40;99.90;;;;;;4953534;28;20110;-75
2022/01/15 00:46:42;;;;;;;27.52;13.90;;;-1.50;99.90;;;;;;4959101;28;20019;-73
2022/01/15 00:49:08;;;;;;;28.02;13.27;;;-1.40;99.90;;;;;;4976552;28;20077;-73
2022/01/15 00:51:34;;;;;;;28.65;14.15;;;-1.50;99.90;;;;;;4976174;28;20034;-73
2022/01/15 00:54:00;;;;;;;30.40;14.05;;;-1.50;99.90;;;;;;4976388;28;20089;-73
2022/01/15 00:56:26;;;;;;;28.73;14.32;;;-1.50;99.90;;;;;;4976416;28;20078;-72
2022/01/15 00:58:52;;;;;;;30.38;15.73;;;-1.50;99.90;;;;;;4975788;28;20554;-72
2022/01/15 01:01:20;;;;;;;29.20;13.90;;;-1.40;99.90;;;;;;4982608;28;20074;-73
2022/01/15 01:03:47;;;;;;;25.83;12.23;;;-1.40;99.90;;;;;;4978710;28;20448;-73
2022/01/15 01:06:13;;;;;;;26.38;13.25;;;-1.40;99.90;;;;;;4966048;28;20109;-73
2022/01/15 01:08:38;;;;;;;22.20;11.10;;;-1.30;99.90;;;;;;4959419;28;20447;-72
2022/01/15 01:11:17;;;;;;;21.02;10.75;;;-1.40;99.90;;;;;;4975781;28;20054;-73
2022/01/15 01:24:27;;;;;;;18.20;9.63;;;-1.50;99.90;;;;;;4967722;28;20037;-73
2022/01/15 01:27:07;;;;;;;17.50;9.68;;;-1.50;99.90;;;;;;4967905;28;20384;-72
2022/01/15 01:34:31;;;;;;;22.00;10.55;;;-1.60;99.90;;;;;;4977200;28;20030;-72
2022/01/15 01:37:26;;;;;;;15.65;8.38;;;-1.60;99.90;;;;;;4961503;28;20481;-72
2022/01/15 01:39:56;;;;;;;18.58;9.13;;;-1.60;99.90;;;;;;4971821;28;20535;-72
2022/01/15 01:45:20;;;;;;;15.93;8.38;;;-1.60;99.90;;;;;;4980556;28;20038;-72
2022/01/15 01:47:46;;;;;;;16.80;8.68;;;-1.60;99.90;;;;;;4905947;28;20050;-74
2022/01/15 01:50:19;;;;;;;16.17;7.90;;;-1.60;99.90;;;;;;4974492;28;20034;-73
2022/01/15 01:52:47;;;;;;;16.30;8.17;;;-1.60;99.90;;;;;;4956460;28;20027;-73
2022/01/15 01:55:13;;;;;;;18.52;8.75;;;-1.60;99.90;;;;;;4979584;28;20832;-73
2022/01/15 01:57:40;;;;;;;15.50;8.57;;;-1.60;99.90;;;;;;4952870;28;20062;-72
2022/01/15 02:00:10;;;;;;;18.50;8.88;;;-1.60;99.90;;;;;;4978641;28;20468;-74
2022/01/15 02:02:39;;;;;;;17.13;8.23;;;-1.60;99.90;;;;;;4971635;28;20574;-74
2022/01/15 02:05:06;;;;;;;16.90;9.20;;;-1.70;99.90;;;;;;4976249;28;20030;-74
2022/01/15 02:07:31;;;;;;;15.73;7.60;;;-1.70;99.90;;;;;;4950881;28;20051;-73
2022/01/15 02:09:58;;;;;;;17.77;7.97;;;-1.60;99.90;;;;;;4978598;28;20061;-74
2022/01/15 02:12:24;;;;;;;16.80;8.40;;;-1.70;99.90;;;;;;4958296;28;20034;-73
2022/01/15 02:14:51;;;;;;;26.25;9.88;;;-1.80;99.90;;;;;;4961057;28;20033;-73
2022/01/15 02:17:19;;;;;;;19.83;10.27;;;-1.80;99.90;;;;;;4959322;28;20030;-74
2022/01/15 02:25:12;;;;;;;28.55;12.18;;;-1.90;99.90;;;;;;4970163;28;20034;-74
2022/01/15 02:27:37;;;;;;;23.58;11.63;;;-2.00;99.90;;;;;;4974002;28;20061;-73
2022/01/15 02:30:07;;;;;;;20.52;11.68;;;-2.00;99.90;;;;;;4950976;28;20492;-74
2022/01/15 02:32:34;;;;;;;24.70;11.63;;;-2.00;99.90;;;;;;4965466;28;20030;-73
2022/01/15 02:35:04;;;;;;;20.40;11.38;;;-2.10;99.90;;;;;;4973691;28;20034;-73
2022/01/15 02:37:30;;;;;;;21.30;11.38;;;-2.10;99.90;;;;;;4973063;28;20034;-72
2022/01/15 02:39:56;;;;;;;26.77;12.00;;;-2.10;99.90;;;;;;4973685;28;20514;-72
2022/01/15 02:42:23;;;;;;;25.27;12.45;;;-2.10;99.90;;;;;;4970718;28;20034;-73
2022/01/15 02:44:57;;;;;;;24.02;12.73;;;-2.20;99.90;;;;;;4969028;28;20023;-73
2022/01/15 02:50:08;;;;;;;25.10;11.75;;;-2.20;99.90;;;;;;4971278;28;20063;-72
2022/01/15 02:52:34;;;;;;;25.52;11.73;;;-2.10;99.90;;;;;;4975786;28;20049;-73
2022/01/15 02:55:06;;;;;;;21.50;11.63;;;-2.20;99.90;;;;;;4970743;28;20488;-73
2022/01/15 02:57:31;;;;;;;24.00;10.93;;;-2.10;99.90;;;;;;4954198;28;20463;-73
2022/01/15 03:00:07;;;;;;;18.13;10.00;;;-2.10;99.90;;;;;;4963800;28;20037;-73
2022/01/15 03:02:33;;;;;;;22.92;11.73;;;-2.10;99.90;;;;;;4975675;28;20116;-72
2022/01/15 03:05:02;;;;;;;16.35;9.35;;;-2.10;99.90;;;;;;4972687;28;20026;-73
2022/01/15 03:07:28;;;;;;;17.40;9.15;;;-2.00;99.90;;;;;;4972633;28;20027;-73
2022/01/15 03:09:53;;;;;;;16.08;8.55;;;-2.00;99.90;;;;;;4967632;28;20018;-73
2022/01/15 03:12:19;;;;;;;21.83;9.20;;;-2.00;99.90;;;;;;4972957;28;20176;-73
2022/01/15 03:14:47;;;;;;;14.85;7.60;;;-2.00;99.90;;;;;;4951789;28;20086;-73
2022/01/15 03:17:13;;;;;;;14.77;7.35;;;-2.00;99.90;;;;;;4972609;28;20122;-73
2022/01/15 03:19:38;;;;;;;16.33;7.40;;;-2.10;99.90;;;;;;4973034;28;20126;-72
2022/01/15 03:22:04;;;;;;;16.17;8.93;;;-2.10;99.90;;;;;;4971124;28;20024;-73
2022/01/15 03:24:30;;;;;;;13.82;7.15;;;-2.10;99.90;;;;;;4970931;28;20476;-73
2022/01/15 03:26:55;;;;;;;12.98;7.03;;;-2.10;99.90;;;;;;4976005;28;20078;-73
2022/01/15 03:29:21;;;;;;;16.48;7.85;;;-2.20;99.90;;;;;;4980284;28;20027;-73
2022/01/15 03:31:47;;;;;;;13.88;7.13;;;-2.20;99.90;;;;;;4972694;28;20030;-72
2022/01/15 03:34:15;;;;;;;15.60;7.45;;;-2.20;99.90;;;;;;4965248;28;20019;-72
2022/01/15 03:36:41;;;;;;;14.20;6.93;;;-2.30;99.90;;;;;;4971554;28;20027;-72
2022/01/15 03:39:07;;;;;;;15.32;7.32;;;-2.30;99.90;;;;;;4970895;28;20094;-72
2022/01/15 03:41:36;;;;;;;15.65;7.50;;;-2.30;99.90;;;;;;4970707;28;20080;-72
2022/01/15 03:44:01;;;;;;;25.25;9.50;;;-2.30;99.90;;;;;;4970258;28;20023;-72
2022/01/15 03:46:27;;;;;;;20.65;10.52;;;-2.30;99.90;;;;;;4953628;28;20053;-71
2022/01/15 03:48:53;;;;;;;15.35;7.90;;;-2.40;99.90;;;;;;4974948;28;20069;-72
2022/01/15 03:51:19;;;;;;;16.38;8.90;;;-2.40;99.90;;;;;;4951083;28;20125;-72
2022/01/15 03:53:45;;;;;;;15.63;8.38;;;-2.50;99.90;;;;;;4972619;28;20034;-72
2022/01/15 03:56:11;;;;;;;17.80;9.40;;;-2.50;99.90;;;;;;4971382;28;20063;-72
2022/01/15 03:58:37;;;;;;;21.20;10.32;;;-2.50;99.90;;;;;;4966323;28;20058;-72
2022/01/15 04:01:06;;;;;;;15.40;7.78;;;-2.50;99.90;;;;;;4968858;28;20034;-72
2022/01/15 04:03:31;;;;;;;16.17;8.93;;;-2.50;99.90;;;;;;4970520;28;20030;-72
2022/01/15 04:05:57;;;;;;;13.77;7.40;;;-2.50;99.90;;;;;;4967755;28;20030;-72
2022/01/15 04:08:23;;;;;;;15.23;7.63;;;-2.50;99.90;;;;;;4968132;28;20092;-71
2022/01/15 04:10:48;;;;;;;16.98;8.32;;;-2.50;99.90;;;;;;4968333;28;20484;-71
2022/01/15 04:13:17;;;;;;;15.02;7.85;;;-2.50;99.90;;;;;;4968527;28;20049;-71
2022/01/15 04:15:52;;;;;;;15.95;7.72;;;-2.60;99.90;;;;;;4979944;28;20038;-72
2022/01/15 04:18:19;;;;;;;17.70;7.97;;;-2.50;99.90;;;;;;4965993;28;20104;-72
2022/01/15 04:20:45;;;;;;;16.92;8.13;;;-2.50;99.90;;;;;;4968978;28;20038;-71
2022/01/15 04:23:10;;;;;;;16.02;7.78;;;-2.50;99.90;;;;;;4972920;28;20035;-71
2022/01/15 04:25:36;;;;;;;17.92;8.63;;;-2.50;99.90;;;;;;4956723;28;20460;-72
2022/01/15 04:28:07;;;;;;;15.55;8.75;;;-2.50;99.90;;;;;;4973046;28;20058;-71
2022/01/15 04:30:33;;;;;;;18.65;9.13;;;-2.60;99.90;;;;;;4975388;28;20080;-71
2022/01/15 04:32:58;;;;;;;18.27;9.15;;;-2.60;99.90;;;;;;4976548;28;20492;-71
2022/01/15 04:35:24;;;;;;;18.38;8.85;;;-2.60;99.90;;;;;;4958075;28;20117;-72
2022/01/15 04:37:54;;;;;;;19.42;8.60;;;-2.60;99.90;;;;;;4968557;28;20030;-71
2022/01/15 04:40:22;;;;;;;16.33;8.30;;;-2.60;99.90;;;;;;4975958;28;20069;-71
2022/01/15 04:42:48;;;;;;;16.70;7.75;;;-2.60;99.90;;;;;;4963957;28;20031;-72
2022/01/15 04:45:14;;;;;;;19.60;6.65;;;-2.70;99.90;;;;;;4971576;28;20078;-72
2022/01/15 04:47:40;;;;;;;16.42;7.85;;;-2.70;99.90;;;;;;4972337;28;20033;-71
2022/01/15 04:50:14;;;;;;;18.92;7.18;;;-2.70;99.90;;;;;;4972657;28;20027;-70
2022/01/15 04:52:40;;;;;;;14.00;7.63;;;-2.70;99.90;;;;;;4955384;28;20046;-71
2022/01/15 04:55:07;;;;;;;20.30;9.75;;;-2.80;99.90;;;;;;4972287;28;20031;-71
2022/01/15 04:57:38;;;;;;;23.65;10.27;;;-2.80;99.90;;;;;;4959078;28;20070;-72
2022/01/15 05:00:08;;;;;;;23.27;13.00;;;-2.80;99.90;;;;;;4975767;28;20527;-73
2022/01/15 05:02:34;;;;;;;25.92;12.20;;;-2.70;99.90;;;;;;4958185;28;20049;-71
2022/01/15 05:05:00;;;;;;;26.77;11.63;;;-2.70;99.90;;;;;;4957692;28;20027;-71
2022/01/15 05:07:26;;;;;;;23.90;11.75;;;-2.70;99.90;;;;;;4963166;28;20258;-72
2022/01/15 05:09:51;;;;;;;30.67;13.30;;;-2.60;99.90;;;;;;4957948;28;20085;-71
2022/01/15 05:12:32;;;;;;;26.17;12.07;;;-2.70;99.90;;;;;;4975811;28;20030;-71
2022/01/15 05:14:58;;;;;;;30.52;13.77;;;-2.60;99.90;;;;;;4983355;28;20026;-71
2022/01/15 05:17:24;;;;;;;26.55;13.43;;;-2.60;99.90;;;;;;4974930;28;20125;-72
2022/01/15 05:19:50;;;;;;;33.00;13.82;;;-2.60;99.90;;;;;;4975642;28;20125;-73
2022/01/15 05:22:16;;;;;;;30.23;15.07;;;-2.60;99.90;;;;;;4974446;28;20488;-71
2022/01/15 05:24:48;;;;;;;26.33;13.80;;;-2.60;99.90;;;;;;4947815;28;20122;-72
2022/01/15 05:27:22;;;;;;;25.23;13.10;;;-2.60;99.90;;;;;;4973590;28;20023;-71
2022/01/15 05:29:51;;;;;;;23.30;12.32;;;-2.60;99.90;;;;;;4956610;28;20023;-71
2022/01/15 05:32:23;;;;;;;34.83;15.27;;;-2.60;99.90;;;;;;4969817;28;20027;-71
2022/01/15 05:34:49;;;;;;;27.40;14.55;;;-2.60;99.90;;;;;;4974803;28;20039;-72
2022/01/15 05:37:18;;;;;;;30.95;14.90;;;-2.60;99.90;;;;;;4954157;28;20102;-72
2022/01/15 05:39:46;;;;;;;26.38;14.57;;;-2.60;99.90;;;;;;4976117;28;20471;-71
2022/01/15 05:42:12;;;;;;;26.00;13.45;;;-2.60;99.90;;;;;;4971503;28;20023;-71
2022/01/15 05:44:38;;;;;;;31.40;14.45;;;-2.70;99.90;;;;;;4968582;28;20079;-71
2022/01/15 05:47:04;;;;;;;26.92;13.48;;;-2.60;99.90;;;;;;4966404;28;20480;-72
2022/01/15 05:49:29;;;;;;;33.75;15.10;;;-2.60;99.90;;;;;;4971232;28;20063;-73
2022/01/15 05:51:55;;;;;;;29.13;14.82;;;-2.70;99.90;;;;;;4952933;28;20464;-72
2022/01/15 05:54:21;;;;;;;28.23;14.48;;;-2.70;99.90;;;;;;4971421;28;20465;-72
2022/01/15 05:56:46;;;;;;;27.63;14.40;;;-2.70;99.90;;;;;;4968206;28;20019;-72
2022/01/15 05:59:12;;;;;;;30.75;14.05;;;-2.80;99.90;;;;;;4973950;28;20424;-71
2022/01/15 06:01:38;;;;;;;30.25;13.70;;;-2.80;99.90;;;;;;4970658;28;20110;-72
2022/01/15 06:04:04;;;;;;;27.25;13.38;;;-2.80;99.90;;;;;;4960791;28;20030;-72
2022/01/15 06:06:30;;;;;;;21.92;10.43;;;-2.70;99.90;;;;;;4961046;28;20035;-72
2022/01/15 06:08:56;;;;;;;25.48;12.32;;;-2.70;99.90;;;;;;4965635;28;20037;-70
2022/01/15 06:11:23;;;;;;;23.17;11.43;;;-2.80;99.90;;;;;;4969272;28;20118;-72
2022/01/15 06:13:49;;;;;;;22.80;11.00;;;-2.80;99.90;;;;;;4967169;28;20480;-72
2022/01/15 06:16:15;;;;;;;22.80;11.52;;;-2.80;99.90;;;;;;4970571;28;20069;-71
2022/01/15 06:18:41;;;;;;;19.33;9.45;;;-2.80;99.90;;;;;;4954930;28;20030;-71
2022/01/15 06:21:07;;;;;;;17.58;9.07;;;-2.80;99.90;;;;;;4966935;28;20061;-67
2022/01/15 06:23:33;;;;;;;16.42;8.60;;;-2.80;99.90;;;;;;4962386;28;20126;-66
2022/01/15 06:25:59;;;;;;;20.08;8.40;;;-2.70;99.90;;;;;;4956037;28;20057;-70
2022/01/15 06:28:26;;;;;;;17.20;8.30;;;-2.60;99.90;;;;;;4965891;28;20039;-71
2022/01/15 06:30:52;;;;;;;16.98;8.43;;;-2.60;99.90;;;;;;4973209;28;20038;-70
2022/01/15 06:33:21;;;;;;;18.80;8.88;;;-2.60;99.90;;;;;;4956392;28;20031;-70
2022/01/15 06:35:47;;;;;;;17.27;7.90;;;-2.60;99.90;;;;;;4975998;28;20043;-70
2022/01/15 06:38:13;;;;;;;14.77;7.63;;;-2.60;99.90;;;;;;4970585;28;20118;-70
2022/01/15 06:40:39;;;;;;;18.52;8.57;;;-2.70;99.90;;;;;;4959408;28;20035;-69
2022/01/15 06:43:06;;;;;;;17.65;7.72;;;-2.60;99.90;;;;;;4951918;28;20089;-70
2022/01/15 06:45:32;;;;;;;18.48;7.65;;;-2.60;99.90;;;;;;4958596;28;20031;-71
2022/01/15 06:47:59;;;;;;;17.75;8.10;;;-2.60;99.90;;;;;;4946982;28;20415;-71
2022/01/15 06:50:27;;;;;;;21.90;10.30;;;-2.70;99.90;;;;;;4948827;28;20041;-70
2022/01/15 06:52:53;;;;;;;23.92;11.05;;;-2.60;99.90;;;;;;4945227;28;20508;-70
2022/01/15 06:55:20;;;;;;;23.73;11.75;;;-2.60;99.90;;;;;;4951107;28;20034;-71
2022/01/15 06:57:46;;;;;;;28.67;12.73;;;-2.70;99.90;;;;;;4955536;28;20032;-70
2022/01/15 07:00:13;;;;;;;26.20;12.13;;;-2.70;99.90;;;;;;4947853;28;20019;-70
2022/01/15 07:02:39;;;;;;;27.48;13.15;;;-2.70;99.90;;;;;;4948471;28;20038;-72
2022/01/15 07:05:05;;;;;;;24.70;11.82;;;-2.70;99.90;;;;;;4946839;28;20720;-72
2022/01/15 07:07:31;;;;;;;25.92;12.63;;;-2.70;99.90;;;;;;4950161;28;20032;-72
2022/01/15 07:09:57;;;;;;;28.77;13.70;;;-2.70;99.90;;;;;;4947973;28;20529;-71
2022/01/15 07:12:23;;;;;;;26.67;13.98;;;-2.70;99.90;;;;;;4947021;28;20031;-73
2022/01/15 07:14:49;;;;;;;27.42;13.48;;;-2.70;99.90;;;;;;4941858;28;20059;-72
2022/01/15 07:17:15;;;;;;;31.58;13.68;;;-2.70;99.90;;;;;;4960289;28;20382;-73
2022/01/15 07:19:41;;;;;;;33.15;14.68;;;-2.70;99.90;;;;;;4945010;28;20039;-72
2022/01/15 07:22:07;;;;;;;25.60;13.10;;;-2.70;99.90;;;;;;4951853;28;20035;-72
2022/01/15 07:24:33;;;;;;;31.30;14.27;;;-2.60;99.90;;;;;;4954064;28;20388;-72
2022/01/15 07:26:59;;;;;;;30.50;14.23;;;-2.70;99.90;;;;;;4953389;28;20026;-72
2022/01/15 07:29:25;;;;;;;31.63;14.32;;;-2.60;99.90;;;;;;4956950;28;20476;-71
2022/01/15 07:31:52;;;;;;;27.10;12.18;;;-2.60;99.90;;;;;;4954029;28;20393;-72
2022/01/15 07:34:19;;;;;;;29.83;12.93;;;-2.70;99.90;;;;;;4949537;29;20087;-73
2022/01/15 07:36:52;;;;;;;25.40;13.38;;;-2.60;99.90;;;;;;4953111;28;20033;-72
2022/01/15 07:39:18;;;;;;;29.63;12.43;;;-2.70;99.90;;;;;;4950272;28;20024;-72
2022/01/15 07:41:43;;;;;;;24.92;11.90;;;-2.70;99.90;;;;;;4955183;28;20031;-72
2022/01/15 07:44:09;;;;;;;28.92;13.80;;;-2.70;99.90;;;;;;4955601;28;20042;-72
2022/01/15 07:46:35;;;;;;;23.45;12.35;;;-2.70;99.90;;;;;;4950786;28;20137;-70
2022/01/15 07:49:01;;;;;;;24.65;13.55;;;-2.70;99.90;;;;;;4950598;28;20182;-72
2022/01/15 07:51:27;;;;;;;25.92;13.98;;;-2.60;99.90;;;;;;4948371;28;20083;-72
2022/01/15 07:53:53;;;;;;;26.08;13.05;;;-2.60;99.90;;;;;;4951893;28;20075;-72
2022/01/15 07:56:18;;;;;;;27.67;13.82;;;-2.60;99.90;;;;;;4952463;28;20015;-71
2022/01/15 07:58:44;;;;;;;31.83;16.38;;;-2.50;99.90;;;;;;4951833;28;20041;-71
2022/01/15 08:01:10;;;;;;;22.20;12.68;;;-2.50;99.90;;;;;;4952123;28;20435;-71
2022/01/15 08:03:35;;;;;;;30.08;13.52;;;-2.50;99.90;;;;;;4951743;28;20027;-72
2022/01/15 08:06:01;;;;;;;26.08;13.55;;;-2.40;99.90;;;;;;4952152;28;20059;-71
2022/01/15 08:08:27;;;;;;;29.17;14.05;;;-2.40;99.90;;;;;;4947246;28;20038;-71
2022/01/15 08:10:52;;;;;;;33.22;15.73;;;-2.30;99.90;;;;;;4949634;28;20488;-72
2022/01/15 08:13:19;;;;;;;29.70;14.73;;;-2.20;99.90;;;;;;4941028;28;20034;-71
2022/01/15 08:15:45;;;;;;;27.75;14.60;;;-2.20;99.90;;;;;;4952846;28;20464;-72
2022/01/15 08:18:10;;;;;;;29.58;14.38;;;-2.10;99.90;;;;;;4944328;28;20090;-72
2022/01/15 08:20:36;;;;;;;26.40;13.85;;;-2.00;99.90;;;;;;4950168;28;20035;-72
2022/01/15 08:23:02;;;;;;;30.00;14.57;;;-2.00;99.90;;;;;;4948892;28;20066;-72
2022/01/15 08:25:28;;;;;;;31.02;14.80;;;-1.90;99.90;;;;;;4942981;28;20038;-72
2022/01/15 08:27:54;;;;;;;32.30;15.52;;;-1.80;99.90;;;;;;4949926;28;20637;-73
2022/01/15 08:30:22;;;;;;;36.08;16.48;;;-1.80;99.90;;;;;;4943453;28;20676;-72
2022/01/15 08:32:48;;;;;;;29.45;15.15;;;-1.70;99.90;;;;;;4948256;28;20079;-72
2022/01/15 08:35:14;;;;;;;23.90;12.85;;;-1.70;99.90;;;;;;4956717;28;20102;-72
2022/01/15 08:37:41;;;;;;;25.52;12.45;;;-1.80;99.90;;;;;;4952329;28;20118;-72
2022/01/15 08:40:09;;;;;;;24.85;12.65;;;-1.80;99.90;;;;;;4952186;28;20037;-72
2022/01/15 08:42:36;;;;;;;24.85;13.25;;;-1.80;99.90;;;;;;4951414;28;21288;-71
2022/01/15 08:45:05;;;;;;;21.10;12.73;;;-1.80;99.90;;;;;;4948477;28;20024;-71
2022/01/15 08:47:30;;;;;;;28.67;14.57;;;-1.80;99.90;;;;;;4950058;28;20047;-71
2022/01/15 08:49:57;;;;;;;23.38;12.85;;;-1.90;99.90;;;;;;4953353;28;20082;-71
2022/01/15 08:52:23;;;;;;;23.92;12.63;;;-1.90;99.90;;;;;;4952944;28;20471;-71
2022/01/15 08:54:49;;;;;;;28.63;13.00;;;-1.90;99.90;;;;;;4953769;28;20061;-71
2022/01/15 08:57:14;;;;;;;25.35;14.07;;;-1.80;99.90;;;;;;4952031;28;20042;-70
2022/01/15 08:59:41;;;;;;;28.88;13.82;;;-1.80;99.90;;;;;;4959283;28;20023;-71
2022/01/15 09:02:07;;;;;;;28.30;13.38;;;-1.80;99.90;;;;;;4958854;28;20030;-71
2022/01/15 09:04:32;;;;;;;25.17;13.15;;;-1.70;99.90;;;;;;4960096;28;20023;-72
2022/01/15 09:06:58;;;;;;;22.63;12.70;;;-1.60;99.90;;;;;;4957009;28;20527;-71
2022/01/15 09:09:24;;;;;;;25.30;12.43;;;-1.50;99.90;;;;;;4961917;28;20027;-70
2022/01/15 09:11:50;;;;;;;23.67;12.63;;;-1.50;99.90;;;;;;4957369;28;20039;-72
2022/01/15 09:14:16;;;;;;;23.45;12.40;;;-1.50;99.90;;;;;;4953428;28;20034;-71
2022/01/15 09:16:42;;;;;;;21.85;12.70;;;-1.40;99.90;;;;;;4958488;28;20026;-71
2022/01/15 09:19:08;;;;;;;23.27;12.63;;;-1.30;99.90;;;;;;4951468;28;20102;-72
2022/01/15 09:21:34;;;;;;;22.33;12.68;;;-1.20;99.90;;;;;;4951323;28;20023;-73
2022/01/15 09:24:00;;;;;;;25.63;12.23;;;-1.20;99.90;;;;;;4950518;28;20051;-73
2022/01/15 09:26:47;;;;;;;19.50;11.20;;;-1.10;99.90;;;;;;4955826;28;20082;-72
2022/01/15 09:31:57;;;;;;;22.60;11.93;;;-1.10;99.90;;;;;;4949489;28;20066;-73
2022/01/15 09:34:23;;;;;;;18.50;10.73;;;-1.00;99.90;;;;;;4967154;28;20254;-73
2022/01/15 09:36:49;;;;;;;23.73;11.43;;;-1.00;99.90;;;;;;4946391;28;20213;-73
2022/01/15 09:39:16;;;;;;;20.13;11.15;;;-0.90;99.90;;;;;;4949798;28;20035;-74
2022/01/15 09:41:48;;;;;;;22.58;12.98;;;-0.90;99.90;;;;;;4955259;28;20102;-73
2022/01/15 09:44:15;;;;;;;22.60;12.30;;;-0.80;99.90;;;;;;4967592;28;20032;-72
2022/01/15 09:46:41;;;;;;;26.08;13.75;;;-0.80;99.90;;;;;;4953767;28;20082;-73
2022/01/15 09:49:10;;;;;;;26.10;13.52;;;-0.80;99.90;;;;;;4951645;28;20092;-73
2022/01/15 09:51:36;;;;;;;33.35;14.65;;;-0.70;99.90;;;;;;4947919;28;20050;-74
2022/01/15 09:54:02;;;;;;;22.98;13.35;;;-0.70;99.90;;;;;;4952669;28;20027;-74
2022/01/15 09:56:28;;;;;;;24.73;13.70;;;-0.60;99.90;;;;;;4957142;28;20519;-72
2022/01/15 09:58:54;;;;;;;24.38;14.00;;;-0.60;99.90;;;;;;4958130;28;20035;-73
2022/01/15 10:01:20;;;;;;;27.60;13.27;;;-0.60;99.90;;;;;;4946328;28;20027;-71
2022/01/15 10:03:46;;;;;;;30.80;13.63;;;-0.50;99.90;;;;;;4951606;28;20039;-70
2022/01/15 10:06:12;;;;;;;23.65;13.00;;;-0.50;99.90;;;;;;4946240;28;20023;-71
2022/01/15 10:08:37;;;;;;;24.02;14.18;;;-0.40;99.90;;;;;;4954853;28;20038;-73
2022/01/15 10:11:11;;;;;;;28.15;14.30;;;-0.40;99.90;;;;;;4948612;28;20035;-73
2022/01/15 10:13:48;;;;;;;25.85;12.73;;;-0.30;99.90;;;;;;4951421;28;20102;-73
2022/01/15 10:16:17;;;;;;;22.65;12.95;;;-0.20;99.90;;;;;;4962834;28;20035;-73
2022/01/15 10:18:47;;;;;;;23.23;12.02;;;-0.10;99.90;;;;;;4952350;28;20451;-73
2022/01/15 10:21:23;;;;;;;21.90;12.77;;;-0.10;99.90;;;;;;4954135;28;20079;-73
2022/01/15 10:23:53;;;;;;;23.35;12.07;;;-0.10;99.90;;;;;;4951928;28;20035;-72
2022/01/15 10:26:21;;;;;;;23.52;12.68;;;0.00;99.90;;;;;;4951840;28;20026;-73
2022/01/15 10:28:55;;;;;;;24.67;13.20;;;0.10;99.90;;;;;;4953650;28;20400;-74
2022/01/15 10:31:26;;;;;;;25.83;13.55;;;0.10;99.90;;;;;;4951459;28;20038;-73
2022/01/15 10:33:52;;;;;;;19.55;11.45;;;0.20;99.90;;;;;;4950693;28;20035;-72
2022/01/15 10:36:31;;;;;;;23.20;12.95;;;0.20;99.90;;;;;;4953351;28;20042;-73
2022/01/15 10:39:17;;;;;;;22.30;11.73;;;0.30;99.90;;;;;;4947775;28;20053;-72
2022/01/15 10:41:43;;;;;;;22.30;12.38;;;0.40;99.90;;;;;;4948718;28;20115;-73
2022/01/15 10:44:36;;;;;;;21.48;11.95;;;0.40;99.90;;;;;;4953407;28;20023;-72
2022/01/15 10:47:13;;;;;;;24.75;13.15;;;0.50;99.90;;;;;;4946456;28;20039;-72
2022/01/15 10:49:41;;;;;;;23.92;11.90;;;0.60;99.90;;;;;;4949908;28;20050;-72
2022/01/15 10:52:11;;;;;;;23.63;12.55;;;0.60;99.90;;;;;;4948662;28;20102;-72
2022/01/15 10:55:06;;;;;;;22.40;12.50;;;0.60;99.90;;;;;;4958569;28;20035;-71
2022/01/15 10:57:41;;;;;;;21.92;11.30;;;0.70;99.90;;;;;;4950641;28;20477;-72
2022/01/15 11:00:24;;;;;;;24.60;13.85;;;0.70;99.90;;;;;;4954795;28;20062;-73
2022/01/15 11:02:53;;;;;;;25.08;12.73;;;0.70;99.90;;;;;;4955888;28;20034;-72
2022/01/15 11:05:20;;;;;;;37.90;16.17;;;0.80;99.90;;;;;;4949522;28;20051;-73
2022/01/15 11:07:46;;;;;;;24.23;12.32;;;0.80;99.90;;;;;;4949593;28;20039;-74
2022/01/15 11:10:12;;;;;;;20.23;12.30;;;0.90;99.90;;;;;;4952246;29;20038;-75
2022/01/15 11:12:38;;;;;;;23.98;13.18;;;1.00;99.90;;;;;;4953937;28;20023;-73
2022/01/15 11:15:06;;;;;;;23.27;12.98;;;1.00;99.90;;;;;;4953822;28;20031;-72
2022/01/15 11:17:33;;;;;;;26.90;14.25;;;1.10;99.90;;;;;;4955709;28;20055;-73
2022/01/15 11:20:03;;;;;;;28.50;14.45;;;1.10;99.90;;;;;;4955952;28;20082;-71
2022/01/15 11:22:32;;;;;;;25.23;13.55;;;1.20;99.90;;;;;;4949492;28;20121;-71
2022/01/15 11:24:58;;;;;;;26.33;13.65;;;1.30;99.90;;;;;;4951717;28;20035;-72
2022/01/15 11:27:29;;;;;;;26.38;13.10;;;1.30;99.90;;;;;;4951647;28;20129;-73
2022/01/15 11:29:58;;;;;;;24.77;13.70;;;1.30;99.90;;;;;;4952883;28;20023;-74
2022/01/15 11:32:28;;;;;;;30.13;11.77;;;1.40;99.90;;;;;;4951403;28;20114;-75
2022/01/15 11:35:05;;;;;;;25.70;12.23;;;1.50;99.90;;;;;;4941544;28;20474;-75
2022/01/15 11:37:43;;;;;;;28.77;14.15;;;1.60;99.90;;;;;;4961613;28;20030;-75
2022/01/15 11:40:34;;;;;;;20.85;11.93;;;1.70;99.90;;;;;;4954713;28;20403;-73
2022/01/15 11:43:24;;;;;;;21.90;11.77;;;1.70;99.90;;;;;;4955095;28;20035;-73
2022/01/15 11:45:52;;;;;;;26.98;13.77;;;1.80;99.90;;;;;;4950507;29;20027;-74
2022/01/15 11:48:23;;;;;;;25.70;12.30;;;1.90;99.90;;;;;;4927806;28;20043;-75
2022/01/15 11:51:15;;;;;;;21.50;12.27;;;1.90;99.90;;;;;;4955342;29;20397;-75
2022/01/15 11:53:54;;;;;;;23.17;12.75;;;1.90;99.90;;;;;;4952004;28;20031;-75
2022/01/15 11:56:38;;;;;;;24.20;13.20;;;2.00;99.90;;;;;;4949014;29;20039;-75
2022/01/15 11:59:25;;;;;;;27.75;13.73;;;2.00;99.90;;;;;;4951406;28;20019;-75
2022/01/15 12:02:02;;;;;;;29.48;14.38;;;2.10;99.90;;;;;;4955688;28;20046;-75
2022/01/15 12:04:37;;;;;;;22.83;13.20;;;2.10;99.90;;;;;;4946517;28;20042;-76
2022/01/15 12:07:06;;;;;;;22.27;12.57;;;2.20;99.90;;;;;;4961529;28;20444;-75
2022/01/15 12:09:44;;;;;;;26.17;14.70;;;2.30;99.90;;;;;;4957637;28;20112;-75
2022/01/15 12:12:19;;;;;;;25.58;13.88;;;2.20;99.90;;;;;;4970536;28;20026;-75
2022/01/15 12:14:49;;;;;;;27.05;14.68;;;2.20;99.90;;;;;;4957675;28;20034;-74
2022/01/15 12:17:25;;;;;;;23.85;13.38;;;2.20;99.90;;;;;;4965587;28;20396;-74
2022/01/15 12:19:52;;;;;;;23.70;14.10;;;2.30;99.90;;;;;;4964972;28;20117;-73
2022/01/15 12:22:40;;;;;;;21.88;12.82;;;2.40;99.90;;;;;;4955883;28;20055;-72
2022/01/15 12:25:13;;;;;;;40.38;18.02;;;2.40;99.90;;;;;;4959728;28;20053;-73
2022/01/15 12:27:40;;;;;;;29.98;15.77;;;2.40;99.90;;;;;;4973391;28;20110;-74
2022/01/15 12:30:20;;;;;;;28.65;13.75;;;2.40;99.90;;;;;;4960749;28;20039;-75
2022/01/15 12:32:49;;;;;;;32.00;15.20;;;2.50;99.90;;;;;;4948353;28;20388;-76
2022/01/15 12:35:22;;;;;;;30.98;15.25;;;2.60;99.90;;;;;;4954322;28;21180;-74
2022/01/15 12:38:01;;;;;;;29.80;15.25;;;2.60;99.90;;;;;;4950107;28;20496;-74
2022/01/15 12:40:36;;;;;;;24.23;13.60;;;2.60;99.90;;;;;;4956271;28;20046;-75
2022/01/15 12:43:07;;;;;;;23.25;13.25;;;2.60;99.90;;;;;;4959858;28;20022;-75
2022/01/15 12:45:34;;;;;;;23.90;13.30;;;2.60;99.90;;;;;;4958294;28;20035;-76
2022/01/15 12:48:00;;;;;;;24.35;13.77;;;2.60;99.90;;;;;;4959898;28;20452;-78
2022/01/15 12:50:27;;;;;;;28.63;15.50;;;2.60;99.90;;;;;;4957138;28;20126;-78
2022/01/15 12:53:04;;;;;;;23.70;14.70;;;2.80;99.90;;;;;;4959601;28;20031;-76
2022/01/15 12:55:36;;;;;;;25.73;13.98;;;2.80;99.90;;;;;;4953837;28;20059;-77
2022/01/15 12:58:04;;;;;;;25.55;14.45;;;2.80;99.90;;;;;;4966043;28;20081;-77
2022/01/15 13:00:36;;;;;;;22.58;12.77;;;2.90;99.90;;;;;;4960645;28;20027;-76
2022/01/15 13:03:06;;;;;;;25.30;13.40;;;2.90;99.90;;;;;;4978200;28;20039;-77
2022/01/15 13:05:44;;;;;;;21.52;13.77;;;3.00;99.90;;;;;;4963963;28;20373;-77